createdAt,value
2023-01-06T00:01:18.909Z,97536.24
2023-01-06T00:03:51.515Z,97549.22
2023-01-06T00:06:20.149Z,97539.63
2023-01-06T00:08:48.071Z,97543.02
2023-01-06T00:11:16.413Z,97545.70
2023-01-06T00:13:44.281Z,97535.19
2023-01-06T00:16:13.576Z,97541.86
2023-01-06T00:18:42.128Z,97543.15
2023-01-06T00:21:10.508Z,97558.81
2023-01-06T00:23:38.491Z,97563.09
2023-01-06T00:26:07.420Z,97568.33
2023-01-06T00:28:35.740Z,97570.00
2023-01-06T00:31:10.774Z,97574.71
2023-01-06T00:33:40.457Z,97577.24
2023-01-06T00:36:10.712Z,97581.41
2023-01-06T00:38:40.249Z,97574.91
2023-01-06T00:41:29.676Z,97592.08
2023-01-06T00:43:58.096Z,97585.52
2023-01-06T00:46:29.490Z,97585.92
2023-01-06T00:49:06.843Z,97604.86
2023-01-06T00:51:36.934Z,97604.39
2023-01-06T00:54:06.997Z,97607.91
2023-01-06T00:56:42.166Z,97604.10
2023-01-06T00:59:10.809Z,97622.95
2023-01-06T01:01:39.172Z,97627.70
2023-01-06T01:04:07.879Z,97640.17
2023-01-06T01:06:37.717Z,97638.57
2023-01-06T01:09:06.731Z,97637.60
2023-01-06T01:11:54.065Z,97635.96
2023-01-06T01:14:22.032Z,97650.15
2023-01-06T01:16:51.100Z,97649.06
2023-01-06T01:19:19.426Z,97659.98
2023-01-06T01:21:47.606Z,97663.69
2023-01-06T01:24:15.837Z,97668.27
2023-01-06T01:26:44.102Z,97672.64
2023-01-06T01:29:16.404Z,97684.04
2023-01-06T01:31:45.031Z,97681.68
2023-01-06T01:34:14.971Z,97677.26
2023-01-06T01:36:43.716Z,97676.67
2023-01-06T01:39:12.336Z,97674.41
2023-01-06T01:41:40.700Z,97670.64
2023-01-06T01:44:27.187Z,97674.59
2023-01-06T01:46:55.590Z,97672.55
2023-01-06T01:49:25.034Z,97677.42
2023-01-06T01:51:55.034Z,97684.15
2023-01-06T01:54:25.898Z,97676.94
2023-01-06T01:56:56.972Z,97676.30
2023-01-06T01:59:27.489Z,97684.20
2023-01-06T02:01:55.896Z,97683.81
2023-01-06T02:04:25.592Z,97686.89
2023-01-06T02:06:53.929Z,97685.21
2023-01-06T02:09:28.575Z,97691.80
2023-01-06T02:11:57.724Z,97689.04
2023-01-06T02:14:27.090Z,97691.08
2023-01-06T02:17:01.172Z,97684.45
2023-01-06T02:19:35.228Z,97687.74
2023-01-06T02:22:09.053Z,97691.65
2023-01-06T02:24:55.743Z,97697.56
2023-01-06T02:27:23.492Z,97698.34
2023-01-06T02:30:09.785Z,97703.20
2023-01-06T02:32:53.083Z,97699.27
2023-01-06T02:35:21.486Z,97701.89
2023-01-06T02:38:00.167Z,97702.66
2023-01-06T02:40:28.662Z,97711.21
2023-01-06T02:43:08.150Z,97709.51
2023-01-06T02:45:50.144Z,97721.73
2023-01-06T02:48:25.713Z,97724.59
2023-01-06T02:51:12.040Z,97725.34
2023-01-06T02:53:43.824Z,97731.66
2023-01-06T02:56:12.999Z,97735.91
2023-01-06T02:58:46.951Z,97737.88
2023-01-06T03:01:24.494Z,97746.73
2023-01-06T03:03:53.476Z,97751.39
2023-01-06T03:06:28.428Z,97752.86
2023-01-06T03:08:56.861Z,97753.02
2023-01-06T03:11:27.068Z,97741.20
2023-01-06T03:14:03.198Z,97742.98
2023-01-06T03:16:32.334Z,97744.88
2023-01-06T03:19:00.411Z,97742.86
2023-01-06T03:21:32.804Z,97734.08
2023-01-06T03:24:00.702Z,97723.43
2023-01-06T03:26:28.894Z,97730.58
2023-01-06T03:28:57.303Z,97737.63
2023-01-06T03:31:25.236Z,97744.58
2023-01-06T03:34:06.214Z,97737.92
2023-01-06T03:36:37.189Z,97731.72
2023-01-06T03:39:12.212Z,97738.49
2023-01-06T03:42:02.454Z,97749.44
2023-01-06T03:44:39.774Z,97753.30
2023-01-06T03:47:15.203Z,97762.38
2023-01-06T03:49:51.518Z,97763.70
2023-01-06T03:52:23.911Z,97755.80
2023-01-06T03:54:57.820Z,97753.56
2023-01-06T03:57:29.224Z,97759.92
2023-01-06T03:59:59.191Z,97769.67
2023-01-06T04:02:27.408Z,97765.80
2023-01-06T04:05:03.061Z,97767.27
2023-01-06T04:07:31.731Z,97776.20
2023-01-06T04:10:00.211Z,97789.99
2023-01-06T04:12:40.263Z,97782.80
2023-01-06T04:15:12.782Z,97780.04
2023-01-06T04:17:41.863Z,97790.56
2023-01-06T04:20:12.692Z,97795.73
2023-01-06T04:22:41.354Z,97799.27
2023-01-06T04:25:10.056Z,97808.88
2023-01-06T04:27:40.820Z,97811.67
2023-01-06T04:30:09.001Z,97815.08
2023-01-06T04:32:37.043Z,97814.60
2023-01-06T04:35:07.533Z,97824.83
2023-01-06T04:37:36.200Z,97820.27
2023-01-06T04:40:04.422Z,97832.13
2023-01-06T04:42:52.208Z,97830.06
2023-01-06T04:45:20.354Z,97827.24
2023-01-06T04:47:48.220Z,97831.54
2023-01-06T04:50:16.254Z,97839.02
2023-01-06T04:52:44.273Z,97848.48
2023-01-06T04:55:12.581Z,97847.98
2023-01-06T04:57:40.423Z,97840.65
2023-01-06T05:00:08.592Z,97850.15
2023-01-06T05:02:36.414Z,97849.73
2023-01-06T05:05:04.766Z,97857.95
2023-01-06T05:07:33.307Z,97869.45
2023-01-06T05:10:01.270Z,97869.68
2023-01-06T05:12:29.197Z,97876.83
2023-01-06T05:14:56.917Z,97888.77
2023-01-06T05:17:24.992Z,97891.80
2023-01-06T05:19:53.237Z,97899.35
2023-01-06T05:22:21.193Z,97914.86
2023-01-06T05:24:49.067Z,97908.20
2023-01-06T05:27:16.885Z,97907.73
2023-01-06T05:29:44.994Z,97915.22
2023-01-06T05:32:12.849Z,97909.87
2023-01-06T05:34:40.687Z,97917.33
2023-01-06T05:37:08.605Z,97908.52
2023-01-06T05:39:36.680Z,97917.41
2023-01-06T05:42:04.663Z,97919.73
2023-01-06T05:44:32.709Z,97918.77
2023-01-06T05:47:00.766Z,97926.69
2023-01-06T05:49:30.102Z,97924.91
2023-01-06T05:51:57.953Z,97922.02
2023-01-06T05:54:25.868Z,97933.10
2023-01-06T05:56:53.738Z,97933.27
2023-01-06T05:59:21.588Z,97949.29
2023-01-06T06:01:50.098Z,97948.31
2023-01-06T06:04:18.100Z,97952.40
2023-01-06T06:06:46.381Z,97952.27
2023-01-06T06:09:14.244Z,97969.74
2023-01-06T06:11:43.950Z,97959.05
2023-01-06T06:14:11.884Z,97976.60
2023-01-06T06:16:41.806Z,97968.65
2023-01-06T06:19:12.232Z,97975.09
2023-01-06T06:21:40.041Z,97970.93
2023-01-06T06:24:08.116Z,97970.19
2023-01-06T06:26:36.385Z,97975.59
2023-01-06T06:29:05.375Z,97981.73
2023-01-06T06:31:34.318Z,97980.04
2023-01-06T06:34:02.823Z,97981.55
2023-01-06T06:36:31.388Z,97975.23
2023-01-06T06:39:00.523Z,97982.00
2023-01-06T06:41:28.415Z,97978.95
2023-01-06T06:44:02.647Z,97993.21
2023-01-06T06:46:30.911Z,97984.48
2023-01-06T06:48:58.738Z,97998.72
2023-01-06T06:51:26.924Z,97993.66
2023-01-06T06:53:54.901Z,97996.30
2023-01-06T06:56:22.974Z,98011.23
2023-01-06T06:58:50.968Z,98019.45
2023-01-06T07:01:19.835Z,98031.63
2023-01-06T07:03:48.209Z,98026.48
2023-01-06T07:06:19.086Z,98029.16
2023-01-06T07:08:47.429Z,98045.04
2023-01-06T07:11:15.349Z,98060.88
2023-01-06T07:13:43.563Z,98067.21
2023-01-06T07:16:11.868Z,98061.02
2023-01-06T07:18:40.028Z,98063.39
2023-01-06T07:21:08.072Z,98073.25
2023-01-06T07:23:36.430Z,98071.41
2023-01-06T07:26:04.377Z,98077.02
2023-01-06T07:28:32.601Z,98092.83
2023-01-06T07:31:01.673Z,98085.83
2023-01-06T07:33:29.750Z,98088.88
2023-01-06T07:35:57.971Z,98084.55
2023-01-06T07:38:27.206Z,98089.04
2023-01-06T07:40:58.782Z,98091.81
2023-01-06T07:43:28.832Z,98085.02
2023-01-06T07:45:57.313Z,98090.81
2023-01-06T07:48:25.356Z,98098.95
2023-01-06T07:50:53.664Z,98094.67
2023-01-06T07:53:22.157Z,98103.98
2023-01-06T07:55:50.837Z,98113.76
2023-01-06T07:58:18.849Z,98112.05
2023-01-06T08:00:46.784Z,98120.89
2023-01-06T08:03:15.111Z,98106.06
2023-01-06T08:05:43.614Z,98104.94
2023-01-06T08:08:12.388Z,98116.02
2023-01-06T08:10:40.897Z,98114.93
2023-01-06T08:13:09.310Z,98117.53
2023-01-06T08:15:37.691Z,98125.14
2023-01-06T08:18:05.983Z,98121.45
2023-01-06T08:20:34.334Z,98124.91
2023-01-06T08:23:02.504Z,98135.02
2023-01-06T08:25:30.447Z,98136.46
2023-01-06T08:28:00.268Z,98140.62
2023-01-06T08:30:28.411Z,98145.14
2023-01-06T08:32:59.994Z,98150.49
2023-01-06T08:35:28.183Z,98152.52
2023-01-06T08:37:56.122Z,98145.86
2023-01-06T08:40:24.183Z,98160.45
2023-01-06T08:42:52.473Z,98166.86
2023-01-06T08:45:20.348Z,98169.39
2023-01-06T08:47:48.259Z,98171.09
2023-01-06T08:50:16.209Z,98181.16
2023-01-06T08:52:44.405Z,98175.15
2023-01-06T08:55:12.354Z,98184.91
2023-01-06T08:57:40.170Z,98190.16
2023-01-06T09:00:09.742Z,98193.38
2023-01-06T09:02:38.143Z,98194.65
2023-01-06T09:05:06.236Z,98196.06
2023-01-06T09:07:35.332Z,98188.73
2023-01-06T09:10:04.721Z,98186.14
2023-01-06T09:12:32.601Z,98183.61
2023-01-06T09:15:00.891Z,98180.67
2023-01-06T09:17:29.719Z,98182.98
2023-01-06T09:19:57.548Z,98180.48
2023-01-06T09:22:25.420Z,98181.80
2023-01-06T09:24:53.599Z,98179.52
2023-01-06T09:27:22.895Z,98176.42
2023-01-06T09:29:51.372Z,98175.75
2023-01-06T09:32:19.274Z,98175.58
2023-01-06T09:34:47.136Z,98179.73
2023-01-06T09:37:15.396Z,98187.34
2023-01-06T09:39:43.801Z,98186.05
2023-01-06T09:42:20.731Z,98179.18
2023-01-06T09:44:51.337Z,98177.55
2023-01-06T09:47:23.154Z,98186.52
2023-01-06T09:49:57.677Z,98185.60
2023-01-06T09:52:42.289Z,98187.71
2023-01-06T09:55:32.381Z,98187.73
2023-01-06T09:58:03.898Z,98179.37
2023-01-06T10:00:43.841Z,98171.45
2023-01-06T10:03:17.744Z,98164.27
2023-01-06T10:05:55.519Z,98172.22
2023-01-06T10:08:36.316Z,98167.58
2023-01-06T10:11:04.183Z,98177.84
2023-01-06T10:13:51.950Z,98170.41
2023-01-06T10:16:22.953Z,98172.31
2023-01-06T10:19:17.988Z,98171.52
2023-01-06T10:22:06.057Z,98161.45
2023-01-06T10:24:41.737Z,98166.74
2023-01-06T10:27:22.225Z,98168.48
2023-01-06T10:30:43.779Z,98165.80
2023-01-06T10:33:36.451Z,98171.88
2023-01-06T10:36:11.111Z,98174.04
2023-01-06T10:38:41.009Z,98170.60
2023-01-06T10:41:19.752Z,98162.04
2023-01-06T10:43:47.773Z,98158.00
2023-01-06T10:46:16.283Z,98157.67
2023-01-06T10:48:46.647Z,98163.50
2023-01-06T10:51:32.771Z,98163.07
2023-01-06T10:54:19.837Z,98174.10
2023-01-06T10:56:53.813Z,98171.98
2023-01-06T10:59:21.860Z,98162.64
2023-01-06T11:01:53.990Z,98160.17
2023-01-06T11:04:22.039Z,98154.52
2023-01-06T11:06:54.344Z,98153.80
2023-01-06T11:09:28.353Z,98155.77
2023-01-06T11:11:58.120Z,98146.34
2023-01-06T11:14:29.640Z,98140.65
2023-01-06T11:17:00.479Z,98131.33
2023-01-06T11:19:36.122Z,98128.16
2023-01-06T11:22:05.097Z,98125.52
2023-01-06T11:24:33.143Z,98124.17
2023-01-06T11:27:14.170Z,98127.45
2023-01-06T11:29:42.965Z,98123.95
2023-01-06T11:32:20.586Z,98132.50
2023-01-06T11:34:58.311Z,98128.05
2023-01-06T11:37:34.718Z,98133.35
2023-01-06T11:40:16.143Z,98134.16
2023-01-06T11:42:50.010Z,98128.86
2023-01-06T11:45:33.352Z,98126.04
2023-01-06T11:48:02.572Z,98122.32
2023-01-06T11:50:30.839Z,98110.61
2023-01-06T11:53:03.513Z,98119.70
2023-01-06T11:55:32.169Z,98126.85
2023-01-06T11:58:00.150Z,98115.61
2023-01-06T12:00:33.329Z,98121.60
2023-01-06T12:03:17.124Z,98124.22
2023-01-06T12:05:51.970Z,98124.10
2023-01-06T12:08:21.522Z,98120.29
2023-01-06T12:10:59.088Z,98116.95
2023-01-06T12:13:27.723Z,98122.68
2023-01-06T12:16:01.697Z,98117.39
2023-01-06T12:18:31.832Z,98114.97
2023-01-06T12:21:03.933Z,98116.98
2023-01-06T12:23:38.063Z,98113.05
2023-01-06T12:26:11.806Z,98121.66
2023-01-06T12:28:45.566Z,98120.06
2023-01-06T12:31:24.340Z,98115.04
2023-01-06T12:33:58.841Z,98105.43
2023-01-06T12:36:31.219Z,98105.38
2023-01-06T12:39:03.179Z,98107.70
2023-01-06T12:41:45.704Z,98111.75
2023-01-06T12:44:20.882Z,98109.80
2023-01-06T12:47:10.843Z,98111.51
2023-01-06T12:49:39.190Z,98104.17
2023-01-06T12:52:13.186Z,98102.17
2023-01-06T12:54:43.358Z,98101.36
2023-01-06T12:57:23.261Z,98094.40
2023-01-06T13:00:13.601Z,98092.65
2023-01-06T13:03:01.560Z,98091.23
2023-01-06T13:05:38.709Z,98101.98
2023-01-06T13:08:18.091Z,98109.27
2023-01-06T13:10:49.328Z,98110.19
2023-01-06T13:13:18.226Z,98116.98
2023-01-06T13:15:46.798Z,98114.58
2023-01-06T13:18:28.929Z,98118.84
2023-01-06T13:21:04.412Z,98116.05
2023-01-06T13:23:51.245Z,98116.54
2023-01-06T13:26:34.919Z,98110.83
2023-01-06T13:29:22.247Z,98116.15
2023-01-06T13:31:50.329Z,98129.56
2023-01-06T13:34:18.422Z,98128.20
2023-01-06T13:36:49.049Z,98137.31
2023-01-06T13:39:27.544Z,98132.38
2023-01-06T13:41:59.196Z,98141.39
2023-01-06T13:44:29.713Z,98150.17
2023-01-06T13:47:02.598Z,98154.73
2023-01-06T13:49:32.458Z,98152.89
2023-01-06T13:52:00.470Z,98158.05
2023-01-06T13:54:40.621Z,98159.29
2023-01-06T13:57:20.695Z,98157.20
2023-01-06T13:59:53.104Z,98164.96
2023-01-06T14:02:42.903Z,98163.34
2023-01-06T14:05:23.396Z,98165.77
2023-01-06T14:07:59.800Z,98168.03
2023-01-06T14:10:42.791Z,98169.01
2023-01-06T14:13:21.933Z,98171.11
2023-01-06T14:16:01.584Z,98172.05
2023-01-06T14:18:55.981Z,98176.02
2023-01-06T14:21:33.697Z,98178.55
2023-01-06T14:24:10.266Z,98190.55
2023-01-06T14:26:50.574Z,98199.79
2023-01-06T14:29:37.012Z,98204.83
2023-01-06T14:32:05.524Z,98204.86
2023-01-06T14:34:35.744Z,98202.68
2023-01-06T14:37:04.118Z,98205.45
2023-01-06T14:39:34.977Z,98207.66
2023-01-06T14:42:06.584Z,98208.13
2023-01-06T14:44:48.900Z,98210.22
2023-01-06T14:47:21.096Z,98210.21
2023-01-06T14:49:58.422Z,98208.89
2023-01-06T14:52:31.618Z,98209.25
2023-01-06T14:55:01.010Z,98209.38
2023-01-06T14:57:29.107Z,98211.86
2023-01-06T15:00:07.739Z,98215.72
2023-01-06T15:02:35.832Z,98218.32
2023-01-06T15:05:05.248Z,98220.34
2023-01-06T15:07:34.775Z,98226.30
2023-01-06T15:10:21.892Z,98224.27
2023-01-06T15:12:56.678Z,98226.98
2023-01-06T15:15:32.259Z,98223.93
2023-01-06T15:18:02.690Z,98226.75
2023-01-06T15:20:38.803Z,98230.52
2023-01-06T15:23:06.797Z,98240.08
2023-01-06T15:25:37.404Z,98243.42
2023-01-06T15:28:05.234Z,98246.30
2023-01-06T15:30:36.668Z,98252.46
2023-01-06T15:33:05.243Z,98253.24
2023-01-06T15:35:33.489Z,98259.12
2023-01-06T15:38:24.176Z,98264.41
2023-01-06T15:40:52.916Z,98268.89
2023-01-06T15:43:23.279Z,98268.12
2023-01-06T15:45:57.156Z,98266.40
2023-01-06T15:48:27.996Z,98271.02
2023-01-06T15:50:55.928Z,98274.32
2023-01-06T15:53:25.592Z,98269.39
2023-01-06T15:55:56.319Z,98273.20
2023-01-06T15:58:33.953Z,98274.61
2023-01-06T16:01:11.733Z,98276.08
2023-01-06T16:03:39.685Z,98273.23
2023-01-06T16:06:16.689Z,98271.47
2023-01-06T16:08:44.651Z,98267.56
2023-01-06T16:11:37.901Z,98269.20
2023-01-06T16:14:07.158Z,98265.73
2023-01-06T16:16:36.037Z,98267.36
2023-01-06T16:19:08.358Z,98268.21
2023-01-06T16:21:37.583Z,98266.38
2023-01-06T16:24:06.480Z,98271.23
2023-01-06T16:26:41.942Z,98271.54
2023-01-06T16:29:29.004Z,98278.80
2023-01-06T16:31:59.738Z,98280.63
2023-01-06T16:34:31.242Z,98279.59
2023-01-06T16:37:00.302Z,98282.84
2023-01-06T16:39:28.323Z,98292.20
2023-01-06T16:41:59.189Z,98291.21
2023-01-06T16:44:29.958Z,98294.21
2023-01-06T16:46:58.671Z,98296.33
2023-01-06T16:49:26.869Z,98300.03
2023-01-06T16:51:54.868Z,98306.42
2023-01-06T16:54:23.568Z,98306.46
2023-01-06T16:56:53.509Z,98307.30
2023-01-06T16:59:22.359Z,98301.54
2023-01-06T17:01:50.624Z,98301.16
2023-01-06T17:04:19.135Z,98294.84
2023-01-06T17:06:47.038Z,98294.75
2023-01-06T17:09:23.007Z,98298.08
2023-01-06T17:11:53.450Z,98299.70
2023-01-06T17:14:23.839Z,98299.00
2023-01-06T17:16:53.461Z,98299.90
2023-01-06T17:19:23.344Z,98300.73
2023-01-06T17:21:54.972Z,98303.23
2023-01-06T17:24:28.805Z,98308.77
2023-01-06T17:27:22.776Z,98314.16
2023-01-06T17:29:51.843Z,98313.20
2023-01-06T17:32:21.350Z,98319.02
2023-01-06T17:34:49.735Z,98325.53
2023-01-06T17:37:22.340Z,98334.08
2023-01-06T17:39:51.060Z,98338.53
2023-01-06T17:42:19.111Z,98340.23
2023-01-06T17:44:48.831Z,98340.24
2023-01-06T17:47:17.327Z,98341.19
2023-01-06T17:49:51.353Z,98344.83
2023-01-06T17:52:21.758Z,98345.70
2023-01-06T17:55:19.106Z,98339.08
2023-01-06T17:57:47.638Z,98336.17
2023-01-06T18:00:23.798Z,98324.59
2023-01-06T18:02:56.736Z,98327.58
2023-01-06T18:05:24.634Z,98328.26
2023-01-06T18:08:07.643Z,98328.46
2023-01-06T18:10:39.336Z,98320.89
2023-01-06T18:13:16.631Z,98320.79
2023-01-06T18:15:46.790Z,98321.33
2023-01-06T18:18:27.115Z,98325.45
2023-01-06T18:21:13.611Z,98335.24
2023-01-06T18:23:46.094Z,98344.40
2023-01-06T18:26:26.560Z,98341.61
2023-01-06T18:28:57.686Z,98342.69
2023-01-06T18:31:29.822Z,98348.13
2023-01-06T18:34:00.916Z,98344.11
2023-01-06T18:36:29.974Z,98348.92
2023-01-06T18:39:00.561Z,98349.91
2023-01-06T18:41:29.050Z,98349.35
2023-01-06T18:43:57.924Z,98349.20
2023-01-06T18:46:27.031Z,98343.23
2023-01-06T18:48:55.143Z,98339.83
2023-01-06T18:51:24.003Z,98340.83
2023-01-06T18:53:52.781Z,98343.27
2023-01-06T18:56:22.814Z,98346.71
2023-01-06T18:58:55.003Z,98351.22
2023-01-06T19:01:24.594Z,98355.70
2023-01-06T19:03:55.810Z,98359.91
2023-01-06T19:06:26.866Z,98353.22
2023-01-06T19:08:55.073Z,98357.94
2023-01-06T19:11:24.459Z,98363.05
2023-01-06T19:13:54.604Z,98350.23
2023-01-06T19:16:42.531Z,98324.87
2023-01-06T19:19:11.068Z,98332.63
2023-01-06T19:21:39.042Z,98326.50
2023-01-06T19:24:26.798Z,98332.48
2023-01-06T19:26:59.484Z,98337.09
2023-01-06T19:29:29.381Z,98336.20
2023-01-06T19:32:13.079Z,98335.27
2023-01-06T19:34:41.628Z,98337.62
2023-01-06T19:37:16.034Z,98339.00
2023-01-06T19:39:50.848Z,98340.59
2023-01-06T19:42:19.602Z,98337.98
2023-01-06T19:44:49.938Z,98333.65
2023-01-06T19:47:24.235Z,98348.98
2023-01-06T19:49:58.473Z,98365.51
2023-01-06T19:52:27.034Z,98369.25
2023-01-06T19:54:55.948Z,98373.58
2023-01-06T19:57:28.626Z,98366.01
2023-01-06T19:59:57.820Z,98371.11
2023-01-06T20:02:41.904Z,98367.36
2023-01-06T20:05:10.922Z,98369.00
2023-01-06T20:07:38.817Z,98359.50
2023-01-06T20:10:07.056Z,98363.95
2023-01-06T20:12:34.929Z,98368.77
2023-01-06T20:15:05.727Z,98371.66
2023-01-06T20:17:34.557Z,98373.16
2023-01-06T20:20:03.143Z,98377.66
2023-01-06T20:22:31.473Z,98379.95
2023-01-06T20:25:02.543Z,98389.67
2023-01-06T20:27:30.501Z,98394.77
2023-01-06T20:29:58.418Z,98396.05
2023-01-06T20:32:26.227Z,98398.55
2023-01-06T20:34:54.090Z,98397.27
2023-01-06T20:37:22.222Z,98390.48
2023-01-06T20:39:50.593Z,98391.45
2023-01-06T20:42:20.130Z,98389.97
2023-01-06T20:44:48.123Z,98383.24
2023-01-06T20:47:16.290Z,98382.92
2023-01-06T20:49:44.883Z,98390.61
2023-01-06T20:52:12.881Z,98388.11
2023-01-06T20:54:40.795Z,98389.42
2023-01-06T20:57:10.238Z,98385.55
2023-01-06T20:59:38.171Z,98383.73
2023-01-06T21:02:06.841Z,98379.34
2023-01-06T21:04:35.062Z,98385.26
2023-01-06T21:07:03.088Z,98387.91
2023-01-06T21:09:31.259Z,98393.18
2023-01-06T21:11:59.582Z,98392.12
2023-01-06T21:14:27.410Z,98392.40
2023-01-06T21:16:55.502Z,98394.04
2023-01-06T21:19:25.650Z,98392.86
2023-01-06T21:21:53.999Z,98393.09
2023-01-06T21:24:21.872Z,98391.73
2023-01-06T21:26:52.381Z,98391.54
2023-01-06T21:29:20.496Z,98396.55
2023-01-06T21:31:48.526Z,98405.98
2023-01-06T21:34:18.024Z,98403.92
2023-01-06T21:36:45.885Z,98401.77
2023-01-06T21:39:15.678Z,98405.18
2023-01-06T21:42:01.917Z,98407.56
2023-01-06T21:44:31.845Z,98403.70
2023-01-06T21:46:59.886Z,98406.58
2023-01-06T21:49:27.769Z,98407.48
2023-01-06T21:51:57.336Z,98415.91
2023-01-06T21:54:25.346Z,98417.73
2023-01-06T21:56:54.033Z,98418.96
2023-01-06T21:59:22.004Z,98419.02
2023-01-06T22:01:50.428Z,98421.73
2023-01-06T22:04:19.022Z,98421.86
2023-01-06T22:06:47.212Z,98418.88
2023-01-06T22:09:16.927Z,98416.01
2023-01-06T22:11:45.427Z,98408.77
2023-01-06T22:14:14.061Z,98418.59
2023-01-06T22:16:45.303Z,98422.59
2023-01-06T22:19:14.823Z,98429.38
2023-01-06T22:21:44.208Z,98420.60
2023-01-06T22:24:15.938Z,98416.97
2023-01-06T22:26:43.991Z,98412.90
2023-01-06T22:29:13.009Z,98408.45
2023-01-06T22:31:40.848Z,98410.23
2023-01-06T22:34:08.944Z,98412.80
2023-01-06T22:36:36.826Z,98413.09
2023-01-06T22:39:05.066Z,98408.33
2023-01-06T22:41:33.571Z,98406.09
2023-01-06T22:44:01.480Z,98400.13
2023-01-06T22:46:29.661Z,98393.52
2023-01-06T22:48:58.160Z,98394.00
2023-01-06T22:51:27.473Z,98391.52
2023-01-06T22:53:56.231Z,98389.97
2023-01-06T22:56:25.131Z,98397.48
2023-01-06T22:58:53.048Z,98400.73
2023-01-06T23:01:21.194Z,98406.44
2023-01-06T23:03:49.468Z,98404.42
2023-01-06T23:06:17.770Z,98401.13
2023-01-06T23:08:58.938Z,98399.21
2023-01-06T23:11:28.962Z,98388.69
2023-01-06T23:13:57.651Z,98387.71
2023-01-06T23:16:27.068Z,98380.38
2023-01-06T23:18:55.131Z,98381.49
2023-01-06T23:21:24.305Z,98378.16
2023-01-06T23:23:52.804Z,98375.13
2023-01-06T23:26:22.710Z,98369.60
2023-01-06T23:28:51.496Z,98370.52
2023-01-06T23:31:21.068Z,98369.91
2023-01-06T23:33:50.582Z,98374.23
2023-01-06T23:36:19.551Z,98373.93
2023-01-06T23:38:48.625Z,98377.63
2023-01-06T23:41:19.970Z,98379.56
2023-01-06T23:43:47.909Z,98378.48
2023-01-06T23:46:17.555Z,98377.07
2023-01-06T23:48:45.503Z,98378.11
2023-01-06T23:51:14.071Z,98376.04
2023-01-06T23:53:43.616Z,98376.39
2023-01-06T23:56:13.932Z,98381.28
2023-01-06T23:58:42.633Z,98395.05
